sensor_id;sensor_type;location;lat;lon;timestamp;temperature;humidity
52034;DHT22;38045;52.988;6.536;2024-01-15T00:00:47;1.40;72.50
52034;DHT22;38045;52.988;6.536;2024-01-15T00:03:13;1.40;72.70
52034;DHT22;38045;52.988;6.536;2024-01-15T00:05:39;1.40;73.30
52034;DHT22;38045;52.988;6.536;2024-01-15T00:08:04;1.40;72.90
52034;DHT22;38045;52.988;6.536;2024-01-15T00:10:30;1.40;73.20
52034;DHT22;38045;52.988;6.536;2024-01-15T00:12:56;1.40;73.30
52034;DHT22;38045;52.988;6.536;2024-01-15T00:15:21;1.40;72.80
52034;DHT22;38045;52.988;6.536;2024-01-15T00:17:47;1.40;73.10
52034;DHT22;38045;52.988;6.536;2024-01-15T00:20:13;1.40;73.00
52034;DHT22;38045;52.988;6.536;2024-01-15T00:22:39;1.40;73.20
52034;DHT22;38045;52.988;6.536;2024-01-15T00:25:05;1.40;73.70
52034;DHT22;38045;52.988;6.536;2024-01-15T00:27:30;1.40;73.70
52034;DHT22;38045;52.988;6.536;2024-01-15T00:29:56;1.50;73.40
52034;DHT22;38045;52.988;6.536;2024-01-15T00:32:21;1.50;73.50
52034;DHT22;38045;52.988;6.536;2024-01-15T00:34:47;1.60;73.40
52034;DHT22;38045;52.988;6.536;2024-01-15T00:37:13;1.70;73.10
52034;DHT22;38045;52.988;6.536;2024-01-15T00:39:38;1.70;73.50
52034;DHT22;38045;52.988;6.536;2024-01-15T00:42:04;1.70;73.50
52034;DHT22;38045;52.988;6.536;2024-01-15T00:44:30;1.80;73.20
52034;DHT22;38045;52.988;6.536;2024-01-15T00:46:55;1.70;73.20
52034;DHT22;38045;52.988;6.536;2024-01-15T00:49:21;1.80;73.20
52034;DHT22;38045;52.988;6.536;2024-01-15T00:51:47;1.80;73.20
52034;DHT22;38045;52.988;6.536;2024-01-15T00:54:12;1.70;73.30
52034;DHT22;38045;52.988;6.536;2024-01-15T00:56:38;1.70;73.30
52034;DHT22;38045;52.988;6.536;2024-01-15T00:59:04;1.70;73.50
52034;DHT22;38045;52.988;6.536;2024-01-15T01:01:29;1.80;73.80
52034;DHT22;38045;52.988;6.536;2024-01-15T01:03:55;1.80;73.70
52034;DHT22;38045;52.988;6.536;2024-01-15T01:06:21;1.80;73.90
52034;DHT22;38045;52.988;6.536;2024-01-15T01:08:46;1.80;74.20
52034;DHT22;38045;52.988;6.536;2024-01-15T01:11:15;1.80;74.30
52034;DHT22;38045;52.988;6.536;2024-01-15T01:13:41;1.80;74.50
52034;DHT22;38045;52.988;6.536;2024-01-15T01:16:07;1.80;74.60
52034;DHT22;38045;52.988;6.536;2024-01-15T01:18:32;1.80;74.70
52034;DHT22;38045;52.988;6.536;2024-01-15T01:20:58;1.80;74.90
52034;DHT22;38045;52.988;6.536;2024-01-15T01:23:24;1.70;74.90
52034;DHT22;38045;52.988;6.536;2024-01-15T01:25:49;1.70;75.10
52034;DHT22;38045;52.988;6.536;2024-01-15T01:28:15;1.60;75.30
52034;DHT22;38045;52.988;6.536;2024-01-15T01:30:40;1.60;75.50
52034;DHT22;38045;52.988;6.536;2024-01-15T01:33:06;1.50;75.70
52034;DHT22;38045;52.988;6.536;2024-01-15T01:35:31;1.40;75.80
52034;DHT22;38045;52.988;6.536;2024-01-15T01:37:57;1.40;76.00
52034;DHT22;38045;52.988;6.536;2024-01-15T01:40:22;1.40;76.20
52034;DHT22;38045;52.988;6.536;2024-01-15T01:42:48;1.40;76.40
52034;DHT22;38045;52.988;6.536;2024-01-15T01:45:14;1.40;76.70
52034;DHT22;38045;52.988;6.536;2024-01-15T01:47:40;1.40;76.70
52034;DHT22;38045;52.988;6.536;2024-01-15T01:50:06;1.40;76.20
52034;DHT22;38045;52.988;6.536;2024-01-15T01:52:32;1.40;76.50
52034;DHT22;38045;52.988;6.536;2024-01-15T01:55:00;1.40;76.60
52034;DHT22;38045;52.988;6.536;2024-01-15T01:57:26;1.30;76.70
52034;DHT22;38045;52.988;6.536;2024-01-15T01:59:53;1.30;76.70
52034;DHT22;38045;52.988;6.536;2024-01-15T02:02:18;1.40;76.50
52034;DHT22;38045;52.988;6.536;2024-01-15T02:04:47;1.30;76.50
52034;DHT22;38045;52.988;6.536;2024-01-15T02:07:13;1.30;76.50
52034;DHT22;38045;52.988;6.536;2024-01-15T02:09:38;1.30;76.30
52034;DHT22;38045;52.988;6.536;2024-01-15T02:12:04;1.20;76.50
52034;DHT22;38045;52.988;6.536;2024-01-15T02:14:30;1.20;76.40
52034;DHT22;38045;52.988;6.536;2024-01-15T02:16:56;1.10;76.60
52034;DHT22;38045;52.988;6.536;2024-01-15T02:19:21;1.10;76.80
52034;DHT22;38045;52.988;6.536;2024-01-15T02:21:47;1.10;76.60
52034;DHT22;38045;52.988;6.536;2024-01-15T02:24:12;1.10;76.70
52034;DHT22;38045;52.988;6.536;2024-01-15T02:26:38;1.10;76.90
52034;DHT22;38045;52.988;6.536;2024-01-15T02:29:07;1.10;77.10
52034;DHT22;38045;52.988;6.536;2024-01-15T02:31:34;1.10;76.90
52034;DHT22;38045;52.988;6.536;2024-01-15T02:34:00;1.10;76.80
52034;DHT22;38045;52.988;6.536;2024-01-15T02:36:26;1.20;76.80
52034;DHT22;38045;52.988;6.536;2024-01-15T02:38:51;1.20;76.60
52034;DHT22;38045;52.988;6.536;2024-01-15T02:41:17;1.30;76.80
52034;DHT22;38045;52.988;6.536;2024-01-15T02:43:42;1.30;76.70
52034;DHT22;38045;52.988;6.536;2024-01-15T02:46:08;1.40;76.70
52034;DHT22;38045;52.988;6.536;2024-01-15T02:48:33;1.40;76.60
52034;DHT22;38045;52.988;6.536;2024-01-15T02:51:01;1.40;76.60
52034;DHT22;38045;52.988;6.536;2024-01-15T02:53:26;1.40;76.60
52034;DHT22;38045;52.988;6.536;2024-01-15T02:55:52;1.40;76.50
52034;DHT22;38045;52.988;6.536;2024-01-15T02:58:17;1.40;76.50
52034;DHT22;38045;52.988;6.536;2024-01-15T03:00:43;1.40;76.50
52034;DHT22;38045;52.988;6.536;2024-01-15T03:03:09;1.40;76.50
52034;DHT22;38045;52.988;6.536;2024-01-15T03:05:34;1.40;76.50
52034;DHT22;38045;52.988;6.536;2024-01-15T03:08:00;1.40;76.50
52034;DHT22;38045;52.988;6.536;2024-01-15T03:10:26;1.40;76.50
52034;DHT22;38045;52.988;6.536;2024-01-15T03:12:51;1.50;76.50
52034;DHT22;38045;52.988;6.536;2024-01-15T03:15:17;1.50;76.50
52034;DHT22;38045;52.988;6.536;2024-01-15T03:17:44;1.50;76.40
52034;DHT22;38045;52.988;6.536;2024-01-15T03:20:10;1.50;76.50
52034;DHT22;38045;52.988;6.536;2024-01-15T03:22:36;1.50;76.60
52034;DHT22;38045;52.988;6.536;2024-01-15T03:25:02;1.50;76.50
52034;DHT22;38045;52.988;6.536;2024-01-15T03:27:28;1.40;76.50
52034;DHT22;38045;52.988;6.536;2024-01-15T03:29:53;1.40;76.60
52034;DHT22;38045;52.988;6.536;2024-01-15T03:32:19;1.50;76.60
52034;DHT22;38045;52.988;6.536;2024-01-15T03:34:45;1.50;76.50
52034;DHT22;38045;52.988;6.536;2024-01-15T03:37:12;1.50;76.50
52034;DHT22;38045;52.988;6.536;2024-01-15T03:39:38;1.60;76.60
52034;DHT22;38045;52.988;6.536;2024-01-15T03:42:04;1.50;76.50
52034;DHT22;38045;52.988;6.536;2024-01-15T03:44:30;1.60;76.50
52034;DHT22;38045;52.988;6.536;2024-01-15T03:46:56;1.50;76.50
52034;DHT22;38045;52.988;6.536;2024-01-15T03:49:21;1.60;76.50
52034;DHT22;38045;52.988;6.536;2024-01-15T03:51:47;1.60;76.40
52034;DHT22;38045;52.988;6.536;2024-01-15T03:54:12;1.60;76.30
52034;DHT22;38045;52.988;6.536;2024-01-15T03:56:38;1.60;76.30
52034;DHT22;38045;52.988;6.536;2024-01-15T03:59:04;1.60;76.30
52034;DHT22;38045;52.988;6.536;2024-01-15T04:01:29;1.60;76.30
52034;DHT22;38045;52.988;6.536;2024-01-15T04:03:55;1.60;76.30
52034;DHT22;38045;52.988;6.536;2024-01-15T04:06:20;1.60;76.20
52034;DHT22;38045;52.988;6.536;2024-01-15T04:08:46;1.70;76.20
52034;DHT22;38045;52.988;6.536;2024-01-15T04:11:12;1.70;76.30
52034;DHT22;38045;52.988;6.536;2024-01-15T04:13:37;1.80;76.20
52034;DHT22;38045;52.988;6.536;2024-01-15T04:16:03;1.80;76.10
52034;DHT22;38045;52.988;6.536;2024-01-15T04:18:29;1.80;75.90
52034;DHT22;38045;52.988;6.536;2024-01-15T04:20:54;1.70;75.50
52034;DHT22;38045;52.988;6.536;2024-01-15T04:23:20;1.70;76.00
52034;DHT22;38045;52.988;6.536;2024-01-15T04:25:45;1.70;75.80
52034;DHT22;38045;52.988;6.536;2024-01-15T04:28:11;1.70;75.50
52034;DHT22;38045;52.988;6.536;2024-01-15T04:30:37;1.70;75.50
52034;DHT22;38045;52.988;6.536;2024-01-15T04:33:03;1.60;75.70
52034;DHT22;38045;52.988;6.536;2024-01-15T04:35:29;1.60;75.80
52034;DHT22;38045;52.988;6.536;2024-01-15T04:37:55;1.50;75.90
52034;DHT22;38045;52.988;6.536;2024-01-15T04:40:20;1.50;75.90
52034;DHT22;38045;52.988;6.536;2024-01-15T04:42:46;1.50;75.30
52034;DHT22;38045;52.988;6.536;2024-01-15T04:45:12;1.50;75.00
52034;DHT22;38045;52.988;6.536;2024-01-15T04:47:37;1.50;75.10
52034;DHT22;38045;52.988;6.536;2024-01-15T04:50:04;1.50;75.00
52034;DHT22;38045;52.988;6.536;2024-01-15T04:52:30;1.40;75.00
52034;DHT22;38045;52.988;6.536;2024-01-15T04:54:55;1.40;75.00
52034;DHT22;38045;52.988;6.536;2024-01-15T04:57:21;1.40;75.10
52034;DHT22;38045;52.988;6.536;2024-01-15T04:59:46;1.40;75.30
52034;DHT22;38045;52.988;6.536;2024-01-15T05:02:12;1.30;75.70
52034;DHT22;38045;52.988;6.536;2024-01-15T05:04:38;1.30;75.60
52034;DHT22;38045;52.988;6.536;2024-01-15T05:07:03;1.20;75.80
52034;DHT22;38045;52.988;6.536;2024-01-15T05:09:29;1.20;75.80
52034;DHT22;38045;52.988;6.536;2024-01-15T05:11:54;1.20;75.80
52034;DHT22;38045;52.988;6.536;2024-01-15T05:14:20;1.20;75.80
52034;DHT22;38045;52.988;6.536;2024-01-15T05:16:49;1.20;75.80
52034;DHT22;38045;52.988;6.536;2024-01-15T05:19:15;1.20;75.80
52034;DHT22;38045;52.988;6.536;2024-01-15T05:21:41;1.20;75.60
52034;DHT22;38045;52.988;6.536;2024-01-15T05:24:08;1.10;75.70
52034;DHT22;38045;52.988;6.536;2024-01-15T05:26:33;1.10;75.60
52034;DHT22;38045;52.988;6.536;2024-01-15T05:28:59;1.10;75.40
52034;DHT22;38045;52.988;6.536;2024-01-15T05:31:25;1.10;75.50
52034;DHT22;38045;52.988;6.536;2024-01-15T05:33:50;1.20;75.40
52034;DHT22;38045;52.988;6.536;2024-01-15T05:36:16;1.20;75.30
52034;DHT22;38045;52.988;6.536;2024-01-15T05:38:41;1.20;75.30
52034;DHT22;38045;52.988;6.536;2024-01-15T05:41:07;1.30;75.30
52034;DHT22;38045;52.988;6.536;2024-01-15T05:43:33;1.40;75.10
52034;DHT22;38045;52.988;6.536;2024-01-15T05:45:58;1.40;75.00
52034;DHT22;38045;52.988;6.536;2024-01-15T05:48:24;1.20;75.30
52034;DHT22;38045;52.988;6.536;2024-01-15T05:50:49;1.10;75.40
52034;DHT22;38045;52.988;6.536;2024-01-15T05:53:15;1.00;75.70
52034;DHT22;38045;52.988;6.536;2024-01-15T05:55:41;1.00;75.80
52034;DHT22;38045;52.988;6.536;2024-01-15T05:58:06;1.00;76.00
52034;DHT22;38045;52.988;6.536;2024-01-15T06:00:32;0.90;76.10
52034;DHT22;38045;52.988;6.536;2024-01-15T06:03:01;0.80;76.30
52034;DHT22;38045;52.988;6.536;2024-01-15T06:05:27;0.80;76.70
52034;DHT22;38045;52.988;6.536;2024-01-15T06:07:53;0.70;76.80
52034;DHT22;38045;52.988;6.536;2024-01-15T06:10:18;0.70;76.60
52034;DHT22;38045;52.988;6.536;2024-01-15T06:12:44;0.60;76.90
52034;DHT22;38045;52.988;6.536;2024-01-15T06:15:10;0.60;76.90
52034;DHT22;38045;52.988;6.536;2024-01-15T06:17:36;0.60;76.90
52034;DHT22;38045;52.988;6.536;2024-01-15T06:20:02;0.60;76.90
52034;DHT22;38045;52.988;6.536;2024-01-15T06:22:28;0.70;76.90
52034;DHT22;38045;52.988;6.536;2024-01-15T06:24:54;0.70;77.20
52034;DHT22;38045;52.988;6.536;2024-01-15T06:27:21;0.70;77.00
52034;DHT22;38045;52.988;6.536;2024-01-15T06:29:46;0.80;77.10
52034;DHT22;38045;52.988;6.536;2024-01-15T06:32:14;0.80;76.90
52034;DHT22;38045;52.988;6.536;2024-01-15T06:34:40;0.80;76.80
52034;DHT22;38045;52.988;6.536;2024-01-15T06:37:06;0.80;76.90
52034;DHT22;38045;52.988;6.536;2024-01-15T06:39:32;0.80;76.90
52034;DHT22;38045;52.988;6.536;2024-01-15T06:41:57;0.80;76.90
52034;DHT22;38045;52.988;6.536;2024-01-15T06:44:23;0.70;76.90
52034;DHT22;38045;52.988;6.536;2024-01-15T06:46:48;0.80;77.10
52034;DHT22;38045;52.988;6.536;2024-01-15T06:49:14;0.70;77.10
52034;DHT22;38045;52.988;6.536;2024-01-15T06:51:40;0.80;77.20
52034;DHT22;38045;52.988;6.536;2024-01-15T06:54:05;0.80;77.20
52034;DHT22;38045;52.988;6.536;2024-01-15T06:56:31;0.80;77.20
52034;DHT22;38045;52.988;6.536;2024-01-15T06:58:57;0.70;77.20
52034;DHT22;38045;52.988;6.536;2024-01-15T07:01:23;0.70;77.20
52034;DHT22;38045;52.988;6.536;2024-01-15T07:03:49;0.80;77.10
52034;DHT22;38045;52.988;6.536;2024-01-15T07:06:14;0.80;77.10
52034;DHT22;38045;52.988;6.536;2024-01-15T07:08:40;0.80;77.00
52034;DHT22;38045;52.988;6.536;2024-01-15T07:11:07;0.80;77.00
52034;DHT22;38045;52.988;6.536;2024-01-15T07:13:33;0.80;76.90
52034;DHT22;38045;52.988;6.536;2024-01-15T07:15:59;0.80;76.90
52034;DHT22;38045;52.988;6.536;2024-01-15T07:18:24;0.80;76.90
52034;DHT22;38045;52.988;6.536;2024-01-15T07:20:50;0.80;76.80
52034;DHT22;38045;52.988;6.536;2024-01-15T07:23:16;0.80;76.70
52034;DHT22;38045;52.988;6.536;2024-01-15T07:25:42;0.80;76.70
52034;DHT22;38045;52.988;6.536;2024-01-15T07:28:08;0.80;76.60
52034;DHT22;38045;52.988;6.536;2024-01-15T07:30:34;0.70;76.60
52034;DHT22;38045;52.988;6.536;2024-01-15T07:32:59;0.70;76.60
52034;DHT22;38045;52.988;6.536;2024-01-15T07:35:25;0.70;76.70
52034;DHT22;38045;52.988;6.536;2024-01-15T07:37:50;0.70;76.50
52034;DHT22;38045;52.988;6.536;2024-01-15T07:40:16;0.70;76.40
52034;DHT22;38045;52.988;6.536;2024-01-15T07:42:42;0.70;76.50
52034;DHT22;38045;52.988;6.536;2024-01-15T07:45:08;0.80;76.30
52034;DHT22;38045;52.988;6.536;2024-01-15T07:47:34;0.80;76.40
52034;DHT22;38045;52.988;6.536;2024-01-15T07:50:00;0.80;76.00
52034;DHT22;38045;52.988;6.536;2024-01-15T07:52:26;0.80;75.80
52034;DHT22;38045;52.988;6.536;2024-01-15T07:54:52;0.80;75.80
52034;DHT22;38045;52.988;6.536;2024-01-15T07:57:17;0.80;76.00
52034;DHT22;38045;52.988;6.536;2024-01-15T07:59:43;0.80;75.80
52034;DHT22;38045;52.988;6.536;2024-01-15T08:02:09;0.80;75.70
52034;DHT22;38045;52.988;6.536;2024-01-15T08:04:37;0.80;75.70
52034;DHT22;38045;52.988;6.536;2024-01-15T08:07:03;0.80;75.80
52034;DHT22;38045;52.988;6.536;2024-01-15T08:09:29;0.80;75.90
52034;DHT22;38045;52.988;6.536;2024-01-15T08:11:55;0.80;76.00
52034;DHT22;38045;52.988;6.536;2024-01-15T08:14:21;0.80;76.00
52034;DHT22;38045;52.988;6.536;2024-01-15T08:16:46;0.80;75.90
52034;DHT22;38045;52.988;6.536;2024-01-15T08:19:12;0.80;76.00
52034;DHT22;38045;52.988;6.536;2024-01-15T08:21:37;0.80;76.10
52034;DHT22;38045;52.988;6.536;2024-01-15T08:24:04;0.80;76.00
52034;DHT22;38045;52.988;6.536;2024-01-15T08:26:30;0.80;76.20
52034;DHT22;38045;52.988;6.536;2024-01-15T08:28:56;0.80;76.20
52034;DHT22;38045;52.988;6.536;2024-01-15T08:31:22;0.80;76.40
52034;DHT22;38045;52.988;6.536;2024-01-15T08:33:47;0.90;76.20
52034;DHT22;38045;52.988;6.536;2024-01-15T08:36:13;1.00;76.00
52034;DHT22;38045;52.988;6.536;2024-01-15T08:38:38;1.00;75.80
52034;DHT22;38045;52.988;6.536;2024-01-15T08:41:04;1.00;76.10
52034;DHT22;38045;52.988;6.536;2024-01-15T08:43:30;1.00;75.90
52034;DHT22;38045;52.988;6.536;2024-01-15T08:45:58;1.10;75.50
52034;DHT22;38045;52.988;6.536;2024-01-15T08:48:24;1.00;75.50
52034;DHT22;38045;52.988;6.536;2024-01-15T08:50:53;1.10;75.50
52034;DHT22;38045;52.988;6.536;2024-01-15T08:53:18;1.10;75.60
52034;DHT22;38045;52.988;6.536;2024-01-15T08:55:44;1.20;75.70
52034;DHT22;38045;52.988;6.536;2024-01-15T08:58:10;1.20;75.50
52034;DHT22;38045;52.988;6.536;2024-01-15T09:00:35;1.30;75.30
52034;DHT22;38045;52.988;6.536;2024-01-15T09:03:01;1.40;75.70
52034;DHT22;38045;52.988;6.536;2024-01-15T09:05:27;1.50;75.40
52034;DHT22;38045;52.988;6.536;2024-01-15T09:07:53;1.50;74.80
52034;DHT22;38045;52.988;6.536;2024-01-15T09:10:19;1.60;73.80
52034;DHT22;38045;52.988;6.536;2024-01-15T09:12:45;1.60;73.40
52034;DHT22;38045;52.988;6.536;2024-01-15T09:15:11;1.60;73.80
52034;DHT22;38045;52.988;6.536;2024-01-15T09:17:37;1.50;74.10
52034;DHT22;38045;52.988;6.536;2024-01-15T09:20:03;1.50;74.10
52034;DHT22;38045;52.988;6.536;2024-01-15T09:22:31;1.40;74.00
52034;DHT22;38045;52.988;6.536;2024-01-15T09:24:57;1.40;74.00
52034;DHT22;38045;52.988;6.536;2024-01-15T09:27:22;1.40;74.30
52034;DHT22;38045;52.988;6.536;2024-01-15T09:29:48;1.40;74.60
52034;DHT22;38045;52.988;6.536;2024-01-15T09:32:13;1.40;74.40
52034;DHT22;38045;52.988;6.536;2024-01-15T09:34:39;1.40;74.60
52034;DHT22;38045;52.988;6.536;2024-01-15T09:37:05;1.40;74.30
52034;DHT22;38045;52.988;6.536;2024-01-15T09:39:31;1.40;74.50
52034;DHT22;38045;52.988;6.536;2024-01-15T09:41:57;1.50;74.70
52034;DHT22;38045;52.988;6.536;2024-01-15T09:44:23;1.60;74.60
52034;DHT22;38045;52.988;6.536;2024-01-15T09:46:49;1.60;74.30
52034;DHT22;38045;52.988;6.536;2024-01-15T09:49:16;1.70;74.20
52034;DHT22;38045;52.988;6.536;2024-01-15T09:51:42;1.80;74.20
52034;DHT22;38045;52.988;6.536;2024-01-15T09:54:08;1.80;74.00
52034;DHT22;38045;52.988;6.536;2024-01-15T09:56:34;1.90;73.90
52034;DHT22;38045;52.988;6.536;2024-01-15T09:59:01;1.90;74.10
52034;DHT22;38045;52.988;6.536;2024-01-15T10:01:28;1.80;73.70
52034;DHT22;38045;52.988;6.536;2024-01-15T10:03:55;1.70;74.00
52034;DHT22;38045;52.988;6.536;2024-01-15T10:06:21;1.70;74.30
52034;DHT22;38045;52.988;6.536;2024-01-15T10:08:49;1.70;74.50
52034;DHT22;38045;52.988;6.536;2024-01-15T10:11:15;1.60;74.60
52034;DHT22;38045;52.988;6.536;2024-01-15T10:13:44;1.60;74.80
52034;DHT22;38045;52.988;6.536;2024-01-15T10:16:10;1.70;74.80
52034;DHT22;38045;52.988;6.536;2024-01-15T10:18:36;1.80;75.00
52034;DHT22;38045;52.988;6.536;2024-01-15T10:21:06;1.90;75.10
52034;DHT22;38045;52.988;6.536;2024-01-15T10:23:34;2.10;74.80
52034;DHT22;38045;52.988;6.536;2024-01-15T10:26:02;2.10;74.50
52034;DHT22;38045;52.988;6.536;2024-01-15T10:28:28;2.00;74.30
52034;DHT22;38045;52.988;6.536;2024-01-15T10:30:57;2.00;74.60
52034;DHT22;38045;52.988;6.536;2024-01-15T10:33:24;2.20;74.50
52034;DHT22;38045;52.988;6.536;2024-01-15T10:36:00;2.40;74.20
52034;DHT22;38045;52.988;6.536;2024-01-15T10:38:26;2.40;73.60
52034;DHT22;38045;52.988;6.536;2024-01-15T10:40:55;2.40;73.30
52034;DHT22;38045;52.988;6.536;2024-01-15T10:43:22;2.30;73.60
52034;DHT22;38045;52.988;6.536;2024-01-15T10:45:49;2.20;74.00
52034;DHT22;38045;52.988;6.536;2024-01-15T10:48:19;2.10;74.00
52034;DHT22;38045;52.988;6.536;2024-01-15T10:50:48;2.00;74.20
52034;DHT22;38045;52.988;6.536;2024-01-15T10:53:15;2.00;74.30
52034;DHT22;38045;52.988;6.536;2024-01-15T10:55:42;2.00;74.60
52034;DHT22;38045;52.988;6.536;2024-01-15T10:58:09;1.90;74.80
52034;DHT22;38045;52.988;6.536;2024-01-15T11:00:38;1.90;74.90
52034;DHT22;38045;52.988;6.536;2024-01-15T11:03:05;1.80;75.20
52034;DHT22;38045;52.988;6.536;2024-01-15T11:05:38;1.70;75.70
52034;DHT22;38045;52.988;6.536;2024-01-15T11:08:06;1.60;76.00
52034;DHT22;38045;52.988;6.536;2024-01-15T11:10:47;1.60;76.20
52034;DHT22;38045;52.988;6.536;2024-01-15T11:16:01;1.60;76.80
52034;DHT22;38045;52.988;6.536;2024-01-15T11:23:52;1.70;76.50
52034;DHT22;38045;52.988;6.536;2024-01-15T11:26:37;1.80;76.40
52034;DHT22;38045;52.988;6.536;2024-01-15T11:29:04;1.70;76.50
52034;DHT22;38045;52.988;6.536;2024-01-15T11:34:06;1.70;76.60
52034;DHT22;38045;52.988;6.536;2024-01-15T11:42:03;1.80;76.50
52034;DHT22;38045;52.988;6.536;2024-01-15T11:44:29;1.80;76.40
52034;DHT22;38045;52.988;6.536;2024-01-15T11:47:06;1.80;76.40
52034;DHT22;38045;52.988;6.536;2024-01-15T11:52:21;1.60;76.60
52034;DHT22;38045;52.988;6.536;2024-01-15T11:57:46;1.60;76.90
52034;DHT22;38045;52.988;6.536;2024-01-15T12:00:15;1.60;76.80
52034;DHT22;38045;52.988;6.536;2024-01-15T12:02:46;1.60;76.70
52034;DHT22;38045;52.988;6.536;2024-01-15T12:05:13;1.50;76.40
52034;DHT22;38045;52.988;6.536;2024-01-15T12:07:40;1.30;76.30
52034;DHT22;38045;52.988;6.536;2024-01-15T12:10:14;1.00;76.40
52034;DHT22;38045;52.988;6.536;2024-01-15T12:15:05;0.80;77.10
52034;DHT22;38045;52.988;6.536;2024-01-15T12:17:31;0.70;77.40
52034;DHT22;38045;52.988;6.536;2024-01-15T12:19:57;0.70;77.60
52034;DHT22;38045;52.988;6.536;2024-01-15T12:22:22;0.70;77.70
52034;DHT22;38045;52.988;6.536;2024-01-15T12:24:48;0.80;77.80
52034;DHT22;38045;52.988;6.536;2024-01-15T12:27:14;0.80;77.80
52034;DHT22;38045;52.988;6.536;2024-01-15T12:29:40;0.80;77.40
52034;DHT22;38045;52.988;6.536;2024-01-15T12:32:06;0.80;77.50
52034;DHT22;38045;52.988;6.536;2024-01-15T12:34:33;0.80;77.70
52034;DHT22;38045;52.988;6.536;2024-01-15T12:36:59;0.90;77.80
52034;DHT22;38045;52.988;6.536;2024-01-15T12:39:24;0.90;77.70
52034;DHT22;38045;52.988;6.536;2024-01-15T12:41:51;1.00;77.60
52034;DHT22;38045;52.988;6.536;2024-01-15T12:44:16;1.00;77.50
52034;DHT22;38045;52.988;6.536;2024-01-15T12:46:42;1.00;77.60
52034;DHT22;38045;52.988;6.536;2024-01-15T12:49:08;1.00;77.70
52034;DHT22;38045;52.988;6.536;2024-01-15T12:51:36;1.10;77.70
52034;DHT22;38045;52.988;6.536;2024-01-15T12:54:02;1.10;77.50
52034;DHT22;38045;52.988;6.536;2024-01-15T12:56:28;1.20;77.70
52034;DHT22;38045;52.988;6.536;2024-01-15T12:58:53;1.40;78.20
52034;DHT22;38045;52.988;6.536;2024-01-15T13:01:19;1.90;78.50
52034;DHT22;38045;52.988;6.536;2024-01-15T13:03:44;2.20;77.10
52034;DHT22;38045;52.988;6.536;2024-01-15T13:06:10;2.10;76.20
52034;DHT22;38045;52.988;6.536;2024-01-15T13:08:36;2.00;76.20
52034;DHT22;38045;52.988;6.536;2024-01-15T13:11:01;1.90;76.30
52034;DHT22;38045;52.988;6.536;2024-01-15T13:13:27;1.80;76.30
52034;DHT22;38045;52.988;6.536;2024-01-15T13:15:53;1.70;76.60
52034;DHT22;38045;52.988;6.536;2024-01-15T13:18:18;1.80;77.30
52034;DHT22;38045;52.988;6.536;2024-01-15T13:20:44;2.10;77.30
52034;DHT22;38045;52.988;6.536;2024-01-15T13:23:11;2.20;76.30
52034;DHT22;38045;52.988;6.536;2024-01-15T13:25:37;2.20;75.10
52034;DHT22;38045;52.988;6.536;2024-01-15T13:28:07;1.90;74.40
52034;DHT22;38045;52.988;6.536;2024-01-15T13:30:33;1.60;74.60
52034;DHT22;38045;52.988;6.536;2024-01-15T13:32:59;1.40;74.70
52034;DHT22;38045;52.988;6.536;2024-01-15T13:35:29;1.20;74.70
52034;DHT22;38045;52.988;6.536;2024-01-15T13:37:55;1.20;73.80
52034;DHT22;38045;52.988;6.536;2024-01-15T13:40:20;1.40;73.50
52034;DHT22;38045;52.988;6.536;2024-01-15T13:42:47;1.40;73.40
52034;DHT22;38045;52.988;6.536;2024-01-15T13:45:14;1.40;73.30
52034;DHT22;38045;52.988;6.536;2024-01-15T13:47:42;1.40;73.60
52034;DHT22;38045;52.988;6.536;2024-01-15T13:50:09;1.40;74.00
52034;DHT22;38045;52.988;6.536;2024-01-15T13:52:35;1.40;74.00
52034;DHT22;38045;52.988;6.536;2024-01-15T13:55:01;1.40;74.40
52034;DHT22;38045;52.988;6.536;2024-01-15T13:57:27;1.40;74.70
52034;DHT22;38045;52.988;6.536;2024-01-15T13:59:52;1.60;75.60
52034;DHT22;38045;52.988;6.536;2024-01-15T14:02:18;2.10;76.10
52034;DHT22;38045;52.988;6.536;2024-01-15T14:04:45;2.20;73.80
52034;DHT22;38045;52.988;6.536;2024-01-15T14:07:11;2.10;72.90
52034;DHT22;38045;52.988;6.536;2024-01-15T14:09:36;2.00;73.60
52034;DHT22;38045;52.988;6.536;2024-01-15T14:12:03;1.80;73.70
52034;DHT22;38045;52.988;6.536;2024-01-15T14:14:29;1.70;74.40
52034;DHT22;38045;52.988;6.536;2024-01-15T14:16:54;1.70;74.70
52034;DHT22;38045;52.988;6.536;2024-01-15T14:19:20;1.60;74.80
52034;DHT22;38045;52.988;6.536;2024-01-15T14:21:46;1.60;75.20
52034;DHT22;38045;52.988;6.536;2024-01-15T14:24:11;1.50;75.30
52034;DHT22;38045;52.988;6.536;2024-01-15T14:26:37;1.50;75.30
52034;DHT22;38045;52.988;6.536;2024-01-15T14:29:03;1.40;75.50
52034;DHT22;38045;52.988;6.536;2024-01-15T14:31:28;1.40;75.50
52034;DHT22;38045;52.988;6.536;2024-01-15T14:33:54;1.40;75.50
52034;DHT22;38045;52.988;6.536;2024-01-15T14:36:23;1.40;75.50
52034;DHT22;38045;52.988;6.536;2024-01-15T14:38:49;1.40;75.70
52034;DHT22;38045;52.988;6.536;2024-01-15T14:41:15;1.50;76.20
52034;DHT22;38045;52.988;6.536;2024-01-15T14:43:42;1.60;76.10
52034;DHT22;38045;52.988;6.536;2024-01-15T14:46:07;1.70;75.90
52034;DHT22;38045;52.988;6.536;2024-01-15T14:48:33;1.70;75.80
52034;DHT22;38045;52.988;6.536;2024-01-15T14:50:59;1.70;75.80
52034;DHT22;38045;52.988;6.536;2024-01-15T14:53:24;1.70;75.70
52034;DHT22;38045;52.988;6.536;2024-01-15T14:55:50;1.70;75.00
52034;DHT22;38045;52.988;6.536;2024-01-15T14:58:15;1.80;74.70
52034;DHT22;38045;52.988;6.536;2024-01-15T15:00:41;1.70;74.30
52034;DHT22;38045;52.988;6.536;2024-01-15T15:03:07;1.70;73.40
52034;DHT22;38045;52.988;6.536;2024-01-15T15:05:32;1.60;73.20
52034;DHT22;38045;52.988;6.536;2024-01-15T15:07:58;1.60;73.70
52034;DHT22;38045;52.988;6.536;2024-01-15T15:10:23;1.60;73.90
52034;DHT22;38045;52.988;6.536;2024-01-15T15:12:49;1.60;74.00
52034;DHT22;38045;52.988;6.536;2024-01-15T15:15:15;1.50;73.90
52034;DHT22;38045;52.988;6.536;2024-01-15T15:17:42;1.50;74.10
52034;DHT22;38045;52.988;6.536;2024-01-15T15:20:08;1.40;74.30
52034;DHT22;38045;52.988;6.536;2024-01-15T15:22:34;1.20;74.50
52034;DHT22;38045;52.988;6.536;2024-01-15T15:24:59;1.00;74.70
52034;DHT22;38045;52.988;6.536;2024-01-15T15:27:25;0.80;74.80
52034;DHT22;38045;52.988;6.536;2024-01-15T15:29:53;0.80;75.40
52034;DHT22;38045;52.988;6.536;2024-01-15T15:32:18;0.60;75.80
52034;DHT22;38045;52.988;6.536;2024-01-15T15:34:44;0.60;76.10
52034;DHT22;38045;52.988;6.536;2024-01-15T15:37:09;0.60;76.40
52034;DHT22;38045;52.988;6.536;2024-01-15T15:39:35;0.60;76.30
52034;DHT22;38045;52.988;6.536;2024-01-15T15:42:01;0.60;76.20
52034;DHT22;38045;52.988;6.536;2024-01-15T15:44:26;0.60;76.40
52034;DHT22;38045;52.988;6.536;2024-01-15T15:46:52;0.60;76.20
52034;DHT22;38045;52.988;6.536;2024-01-15T15:49:17;0.60;76.30
52034;DHT22;38045;52.988;6.536;2024-01-15T15:51:43;0.60;76.60
52034;DHT22;38045;52.988;6.536;2024-01-15T15:54:09;0.70;76.60
52034;DHT22;38045;52.988;6.536;2024-01-15T15:56:35;0.70;76.60
52034;DHT22;38045;52.988;6.536;2024-01-15T15:59:04;0.70;76.80
52034;DHT22;38045;52.988;6.536;2024-01-15T16:01:30;0.80;76.60